sensor_id;sensor_type;location;lat;lon;timestamp;P1;durP1;ratioP1;P2;durP2;ratioP2
83119;SDS011;73001;51.784;4.660;2024-01-15T00:01:26;3.37;;;2.20;;
83119;SDS011;73001;51.784;4.660;2024-01-15T00:03:51;3.08;;;2.00;;
83119;SDS011;73001;51.784;4.660;2024-01-15T00:06:17;4.10;;;2.62;;
83119;SDS011;73001;51.784;4.660;2024-01-15T00:08:43;3.45;;;2.20;;
83119;SDS011;73001;51.784;4.660;2024-01-15T00:11:08;3.40;;;2.19;;
83119;SDS011;73001;51.784;4.660;2024-01-15T00:13:33;3.18;;;2.07;;
83119;SDS011;73001;51.784;4.660;2024-01-15T00:15:59;3.36;;;2.17;;
83119;SDS011;73001;51.784;4.660;2024-01-15T00:18:25;3.05;;;1.98;;
83119;SDS011;73001;51.784;4.660;2024-01-15T00:20:50;3.44;;;2.27;;
83119;SDS011;73001;51.784;4.660;2024-01-15T00:23:16;3.50;;;2.28;;
83119;SDS011;73001;51.784;4.660;2024-01-15T00:25:41;3.07;;;2.01;;
83119;SDS011;73001;51.784;4.660;2024-01-15T00:28:06;3.46;;;2.25;;
83119;SDS011;73001;51.784;4.660;2024-01-15T00:30:32;3.13;;;2.04;;
83119;SDS011;73001;51.784;4.660;2024-01-15T00:32:57;3.44;;;2.24;;
83119;SDS011;73001;51.784;4.660;2024-01-15T00:35:23;3.47;;;2.28;;
83119;SDS011;73001;51.784;4.660;2024-01-15T00:37:48;3.29;;;2.16;;
83119;SDS011;73001;51.784;4.660;2024-01-15T00:40:14;3.78;;;2.47;;
83119;SDS011;73001;51.784;4.660;2024-01-15T00:42:40;3.78;;;2.47;;
83119;SDS011;73001;51.784;4.660;2024-01-15T00:45:05;3.06;;;2.04;;
83119;SDS011;73001;51.784;4.660;2024-01-15T00:47:33;2.97;;;1.98;;
83119;SDS011;73001;51.784;4.660;2024-01-15T00:49:59;3.53;;;2.36;;
83119;SDS011;73001;51.784;4.660;2024-01-15T00:52:25;3.86;;;2.55;;
83119;SDS011;73001;51.784;4.660;2024-01-15T00:54:50;2.95;;;1.96;;
83119;SDS011;73001;51.784;4.660;2024-01-15T00:57:16;4.00;;;2.68;;
83119;SDS011;73001;51.784;4.660;2024-01-15T00:59:41;3.95;;;2.64;;
83119;SDS011;73001;51.784;4.660;2024-01-15T01:02:07;4.20;;;2.80;;
83119;SDS011;73001;51.784;4.660;2024-01-15T01:04:32;3.87;;;2.55;;
83119;SDS011;73001;51.784;4.660;2024-01-15T01:06:58;4.18;;;2.70;;
83119;SDS011;73001;51.784;4.660;2024-01-15T01:09:24;4.66;;;2.98;;
83119;SDS011;73001;51.784;4.660;2024-01-15T01:11:49;3.94;;;2.52;;
83119;SDS011;73001;51.784;4.660;2024-01-15T01:14:15;4.53;;;2.86;;
83119;SDS011;73001;51.784;4.660;2024-01-15T01:16:40;4.98;;;3.12;;
83119;SDS011;73001;51.784;4.660;2024-01-15T01:19:06;4.79;;;3.03;;
83119;SDS011;73001;51.784;4.660;2024-01-15T01:21:32;4.19;;;2.64;;
83119;SDS011;73001;51.784;4.660;2024-01-15T01:23:58;4.85;;;3.03;;
83119;SDS011;73001;51.784;4.660;2024-01-15T01:26:23;4.43;;;2.79;;
83119;SDS011;73001;51.784;4.660;2024-01-15T01:28:49;4.55;;;2.90;;
83119;SDS011;73001;51.784;4.660;2024-01-15T01:31:15;4.60;;;2.96;;
83119;SDS011;73001;51.784;4.660;2024-01-15T01:33:41;4.66;;;3.02;;
83119;SDS011;73001;51.784;4.660;2024-01-15T01:36:10;3.96;;;2.58;;
83119;SDS011;73001;51.784;4.660;2024-01-15T01:38:36;4.45;;;2.87;;
83119;SDS011;73001;51.784;4.660;2024-01-15T01:41:02;4.61;;;2.95;;
83119;SDS011;73001;51.784;4.660;2024-01-15T01:43:28;4.46;;;2.82;;
83119;SDS011;73001;51.784;4.660;2024-01-15T01:45:54;4.46;;;2.82;;
83119;SDS011;73001;51.784;4.660;2024-01-15T01:48:24;4.24;;;2.71;;
83119;SDS011;73001;51.784;4.660;2024-01-15T01:50:51;3.94;;;2.54;;
83119;SDS011;73001;51.784;4.660;2024-01-15T01:53:20;3.59;;;2.33;;
83119;SDS011;73001;51.784;4.660;2024-01-15T01:55:46;3.74;;;2.42;;
83119;SDS011;73001;51.784;4.660;2024-01-15T01:58:13;4.19;;;2.72;;
83119;SDS011;73001;51.784;4.660;2024-01-15T02:00:39;3.64;;;2.37;;
83119;SDS011;73001;51.784;4.660;2024-01-15T02:03:05;3.57;;;2.33;;
83119;SDS011;73001;51.784;4.660;2024-01-15T02:05:31;3.98;;;2.59;;
83119;SDS011;73001;51.784;4.660;2024-01-15T02:07:57;4.38;;;2.82;;
83119;SDS011;73001;51.784;4.660;2024-01-15T02:10:22;3.47;;;2.23;;
83119;SDS011;73001;51.784;4.660;2024-01-15T02:12:48;2.40;;;1.53;;
83119;SDS011;73001;51.784;4.660;2024-01-15T02:15:14;1.73;;;1.09;;
83119;SDS011;73001;51.784;4.660;2024-01-15T02:20:28;2.04;;;1.26;;
83119;SDS011;73001;51.784;4.660;2024-01-15T02:23:03;2.47;;;1.51;;
83119;SDS011;73001;51.784;4.660;2024-01-15T02:25:35;2.33;;;1.44;;
83119;SDS011;73001;51.784;4.660;2024-01-15T02:28:05;2.68;;;1.66;;
83119;SDS011;73001;51.784;4.660;2024-01-15T02:30:34;2.94;;;1.81;;
83119;SDS011;73001;51.784;4.660;2024-01-15T02:33:03;3.65;;;2.26;;
83119;SDS011;73001;51.784;4.660;2024-01-15T02:35:29;3.88;;;2.41;;
83119;SDS011;73001;51.784;4.660;2024-01-15T02:37:54;3.33;;;2.08;;
83119;SDS011;73001;51.784;4.660;2024-01-15T02:40:20;3.63;;;2.26;;
83119;SDS011;73001;51.784;4.660;2024-01-15T02:42:45;3.50;;;2.17;;
83119;SDS011;73001;51.784;4.660;2024-01-15T02:45:11;3.25;;;2.03;;
83119;SDS011;73001;51.784;4.660;2024-01-15T02:47:36;3.75;;;2.33;;
83119;SDS011;73001;51.784;4.660;2024-01-15T02:50:02;3.63;;;2.25;;
83119;SDS011;73001;51.784;4.660;2024-01-15T02:52:27;3.69;;;2.30;;
83119;SDS011;73001;51.784;4.660;2024-01-15T02:54:53;3.82;;;2.38;;
83119;SDS011;73001;51.784;4.660;2024-01-15T02:57:18;4.09;;;2.55;;
83119;SDS011;73001;51.784;4.660;2024-01-15T02:59:44;4.03;;;2.48;;
83119;SDS011;73001;51.784;4.660;2024-01-15T03:02:09;4.23;;;2.60;;
83119;SDS011;73001;51.784;4.660;2024-01-15T03:04:35;4.70;;;2.89;;
83119;SDS011;73001;51.784;4.660;2024-01-15T03:07:00;4.65;;;2.86;;
83119;SDS011;73001;51.784;4.660;2024-01-15T03:09:26;4.34;;;2.69;;
83119;SDS011;73001;51.784;4.660;2024-01-15T03:11:51;3.92;;;2.46;;
83119;SDS011;73001;51.784;4.660;2024-01-15T03:14:17;4.51;;;2.84;;
83119;SDS011;73001;51.784;4.660;2024-01-15T03:16:42;5.16;;;3.24;;
83119;SDS011;73001;51.784;4.660;2024-01-15T03:19:08;3.84;;;2.45;;
83119;SDS011;73001;51.784;4.660;2024-01-15T03:21:33;3.44;;;2.22;;
83119;SDS011;73001;51.784;4.660;2024-01-15T03:23:59;3.03;;;1.98;;
83119;SDS011;73001;51.784;4.660;2024-01-15T03:26:24;2.63;;;1.70;;
83119;SDS011;73001;51.784;4.660;2024-01-15T03:28:49;2.72;;;1.74;;
83119;SDS011;73001;51.784;4.660;2024-01-15T03:31:15;2.15;;;1.36;;
83119;SDS011;73001;51.784;4.660;2024-01-15T03:33:41;2.06;;;1.30;;
83119;SDS011;73001;51.784;4.660;2024-01-15T03:36:06;2.33;;;1.47;;
83119;SDS011;73001;51.784;4.660;2024-01-15T03:38:32;1.90;;;1.21;;
83119;SDS011;73001;51.784;4.660;2024-01-15T03:40:58;1.67;;;1.06;;
83119;SDS011;73001;51.784;4.660;2024-01-15T03:43:23;1.83;;;1.18;;
83119;SDS011;73001;51.784;4.660;2024-01-15T03:45:49;2.40;;;1.58;;
83119;SDS011;73001;51.784;4.660;2024-01-15T03:48:14;2.16;;;1.47;;
83119;SDS011;73001;51.784;4.660;2024-01-15T03:50:39;1.76;;;1.23;;
83119;SDS011;73001;51.784;4.660;2024-01-15T03:53:05;1.64;;;1.18;;
83119;SDS011;73001;51.784;4.660;2024-01-15T03:55:30;1.39;;;1.00;;
83119;SDS011;73001;51.784;4.660;2024-01-15T03:57:56;1.13;;;0.81;;
83119;SDS011;73001;51.784;4.660;2024-01-15T04:00:22;1.03;;;0.73;;
83119;SDS011;73001;51.784;4.660;2024-01-15T04:02:47;1.38;;;0.96;;
83119;SDS011;73001;51.784;4.660;2024-01-15T04:05:13;1.54;;;1.06;;
83119;SDS011;73001;51.784;4.660;2024-01-15T04:07:38;1.76;;;1.20;;
83119;SDS011;73001;51.784;4.660;2024-01-15T04:10:04;2.23;;;1.48;;
83119;SDS011;73001;51.784;4.660;2024-01-15T04:12:30;1.93;;;1.28;;
83119;SDS011;73001;51.784;4.660;2024-01-15T04:14:55;1.89;;;1.25;;
83119;SDS011;73001;51.784;4.660;2024-01-15T04:17:21;1.79;;;1.19;;
83119;SDS011;73001;51.784;4.660;2024-01-15T04:19:46;2.61;;;1.70;;
83119;SDS011;73001;51.784;4.660;2024-01-15T04:22:13;1.94;;;1.26;;
83119;SDS011;73001;51.784;4.660;2024-01-15T04:24:39;2.20;;;1.43;;
83119;SDS011;73001;51.784;4.660;2024-01-15T04:27:05;2.36;;;1.52;;
83119;SDS011;73001;51.784;4.660;2024-01-15T04:29:31;2.03;;;1.30;;
83119;SDS011;73001;51.784;4.660;2024-01-15T04:31:56;1.82;;;1.16;;
83119;SDS011;73001;51.784;4.660;2024-01-15T04:34:22;1.50;;;0.96;;
83119;SDS011;73001;51.784;4.660;2024-01-15T04:36:47;1.47;;;0.95;;
83119;SDS011;73001;51.784;4.660;2024-01-15T04:39:16;1.32;;;0.85;;
83119;SDS011;73001;51.784;4.660;2024-01-15T04:41:41;1.04;;;0.67;;
83119;SDS011;73001;51.784;4.660;2024-01-15T04:44:07;1.13;;;0.73;;
83119;SDS011;73001;51.784;4.660;2024-01-15T04:46:32;1.26;;;0.82;;
83119;SDS011;73001;51.784;4.660;2024-01-15T04:48:58;1.28;;;0.84;;
83119;SDS011;73001;51.784;4.660;2024-01-15T04:51:23;1.28;;;0.84;;
83119;SDS011;73001;51.784;4.660;2024-01-15T04:53:49;1.65;;;1.09;;
83119;SDS011;73001;51.784;4.660;2024-01-15T04:56:14;1.47;;;0.97;;
83119;SDS011;73001;51.784;4.660;2024-01-15T04:58:39;1.47;;;0.97;;
83119;SDS011;73001;51.784;4.660;2024-01-15T05:01:05;1.62;;;1.07;;
83119;SDS011;73001;51.784;4.660;2024-01-15T05:03:30;1.59;;;1.06;;
83119;SDS011;73001;51.784;4.660;2024-01-15T05:05:56;1.47;;;1.00;;
83119;SDS011;73001;51.784;4.660;2024-01-15T05:08:21;1.32;;;0.92;;
83119;SDS011;73001;51.784;4.660;2024-01-15T05:10:47;1.43;;;1.00;;
83119;SDS011;73001;51.784;4.660;2024-01-15T05:13:13;1.46;;;1.03;;
83119;SDS011;73001;51.784;4.660;2024-01-15T05:15:38;1.59;;;1.13;;
83119;SDS011;73001;51.784;4.660;2024-01-15T05:18:04;1.76;;;1.27;;
83119;SDS011;73001;51.784;4.660;2024-01-15T05:20:29;1.94;;;1.44;;
83119;SDS011;73001;51.784;4.660;2024-01-15T05:22:55;1.87;;;1.41;;
83119;SDS011;73001;51.784;4.660;2024-01-15T05:25:21;1.90;;;1.44;;
83119;SDS011;73001;51.784;4.660;2024-01-15T05:27:48;1.75;;;1.34;;
83119;SDS011;73001;51.784;4.660;2024-01-15T05:30:14;1.73;;;1.33;;
83119;SDS011;73001;51.784;4.660;2024-01-15T05:32:40;1.69;;;1.31;;
83119;SDS011;73001;51.784;4.660;2024-01-15T05:35:05;1.33;;;1.04;;
83119;SDS011;73001;51.784;4.660;2024-01-15T05:37:31;1.69;;;1.29;;
83119;SDS011;73001;51.784;4.660;2024-01-15T05:39:56;1.69;;;1.30;;
83119;SDS011;73001;51.784;4.660;2024-01-15T05:42:22;1.73;;;1.35;;
83119;SDS011;73001;51.784;4.660;2024-01-15T05:44:47;1.74;;;1.38;;
83119;SDS011;73001;51.784;4.660;2024-01-15T05:47:13;2.03;;;1.62;;
83119;SDS011;73001;51.784;4.660;2024-01-15T05:49:38;2.22;;;1.81;;
83119;SDS011;73001;51.784;4.660;2024-01-15T05:52:04;2.19;;;1.86;;
83119;SDS011;73001;51.784;4.660;2024-01-15T05:54:30;2.12;;;1.86;;
83119;SDS011;73001;51.784;4.660;2024-01-15T05:56:55;2.15;;;1.94;;
83119;SDS011;73001;51.784;4.660;2024-01-15T05:59:20;1.91;;;1.75;;
83119;SDS011;73001;51.784;4.660;2024-01-15T06:01:46;2.03;;;1.89;;
83119;SDS011;73001;51.784;4.660;2024-01-15T06:04:12;1.97;;;1.86;;
83119;SDS011;73001;51.784;4.660;2024-01-15T06:06:37;1.66;;;1.60;;
83119;SDS011;73001;51.784;4.660;2024-01-15T06:09:02;1.91;;;1.84;;
83119;SDS011;73001;51.784;4.660;2024-01-15T06:11:30;1.98;;;1.91;;
83119;SDS011;73001;51.784;4.660;2024-01-15T06:13:56;1.83;;;1.77;;
83119;SDS011;73001;51.784;4.660;2024-01-15T06:16:23;1.69;;;1.64;;
83119;SDS011;73001;51.784;4.660;2024-01-15T06:18:49;1.76;;;1.69;;
83119;SDS011;73001;51.784;4.660;2024-01-15T06:21:15;1.76;;;1.71;;
83119;SDS011;73001;51.784;4.660;2024-01-15T06:23:41;1.70;;;1.68;;
83119;SDS011;73001;51.784;4.660;2024-01-15T06:26:07;4.02;;;3.92;;
83119;SDS011;73001;51.784;4.660;2024-01-15T06:28:33;4.08;;;3.96;;
83119;SDS011;73001;51.784;4.660;2024-01-15T06:30:59;3.99;;;3.86;;
83119;SDS011;73001;51.784;4.660;2024-01-15T06:33:24;3.98;;;3.87;;
83119;SDS011;73001;51.784;4.660;2024-01-15T06:35:50;2.61;;;2.55;;
83119;SDS011;73001;51.784;4.660;2024-01-15T06:38:16;1.93;;;1.88;;
83119;SDS011;73001;51.784;4.660;2024-01-15T06:40:42;1.52;;;1.46;;
83119;SDS011;73001;51.784;4.660;2024-01-15T06:43:14;1.37;;;1.32;;
83119;SDS011;73001;51.784;4.660;2024-01-15T06:45:40;1.20;;;1.13;;
83119;SDS011;73001;51.784;4.660;2024-01-15T06:48:07;0.93;;;0.86;;
83119;SDS011;73001;51.784;4.660;2024-01-15T06:50:37;0.87;;;0.79;;
83119;SDS011;73001;51.784;4.660;2024-01-15T06:53:03;1.36;;;1.22;;
83119;SDS011;73001;51.784;4.660;2024-01-15T06:55:29;1.39;;;1.25;;
83119;SDS011;73001;51.784;4.660;2024-01-15T06:57:54;1.18;;;1.06;;
83119;SDS011;73001;51.784;4.660;2024-01-15T07:00:20;1.36;;;1.21;;
83119;SDS011;73001;51.784;4.660;2024-01-15T07:02:45;1.93;;;1.73;;
83119;SDS011;73001;51.784;4.660;2024-01-15T07:05:11;2.23;;;2.02;;
83119;SDS011;73001;51.784;4.660;2024-01-15T07:07:36;2.00;;;1.82;;
83119;SDS011;73001;51.784;4.660;2024-01-15T07:10:02;1.60;;;1.46;;
83119;SDS011;73001;51.784;4.660;2024-01-15T07:12:29;1.39;;;1.28;;
83119;SDS011;73001;51.784;4.660;2024-01-15T07:14:55;1.61;;;1.49;;
83119;SDS011;73001;51.784;4.660;2024-01-15T07:17:21;1.45;;;1.36;;
83119;SDS011;73001;51.784;4.660;2024-01-15T07:19:47;1.59;;;1.49;;
83119;SDS011;73001;51.784;4.660;2024-01-15T07:22:12;1.49;;;1.41;;
83119;SDS011;73001;51.784;4.660;2024-01-15T07:24:40;1.46;;;1.36;;
83119;SDS011;73001;51.784;4.660;2024-01-15T07:27:06;1.41;;;1.31;;
83119;SDS011;73001;51.784;4.660;2024-01-15T07:29:31;2.36;;;2.15;;
83119;SDS011;73001;51.784;4.660;2024-01-15T07:31:58;4.57;;;4.11;;
83119;SDS011;73001;51.784;4.660;2024-01-15T07:34:24;3.53;;;3.22;;
83119;SDS011;73001;51.784;4.660;2024-01-15T07:36:49;1.90;;;1.75;;
83119;SDS011;73001;51.784;4.660;2024-01-15T07:39:14;1.44;;;1.33;;
83119;SDS011;73001;51.784;4.660;2024-01-15T07:41:40;1.61;;;1.51;;
83119;SDS011;73001;51.784;4.660;2024-01-15T07:44:05;1.50;;;1.42;;
83119;SDS011;73001;51.784;4.660;2024-01-15T07:46:31;1.69;;;1.57;;
83119;SDS011;73001;51.784;4.660;2024-01-15T07:48:57;1.99;;;1.85;;
83119;SDS011;73001;51.784;4.660;2024-01-15T07:51:26;2.35;;;2.19;;
83119;SDS011;73001;51.784;4.660;2024-01-15T07:53:55;2.03;;;1.89;;
83119;SDS011;73001;51.784;4.660;2024-01-15T07:56:21;1.95;;;1.81;;
83119;SDS011;73001;51.784;4.660;2024-01-15T07:58:46;1.91;;;1.74;;
83119;SDS011;73001;51.784;4.660;2024-01-15T08:01:12;3.48;;;3.18;;
83119;SDS011;73001;51.784;4.660;2024-01-15T08:03:38;3.11;;;2.93;;
83119;SDS011;73001;51.784;4.660;2024-01-15T08:06:04;2.77;;;2.61;;
83119;SDS011;73001;51.784;4.660;2024-01-15T08:08:30;2.27;;;2.05;;
83119;SDS011;73001;51.784;4.660;2024-01-15T08:10:56;3.04;;;2.70;;
83119;SDS011;73001;51.784;4.660;2024-01-15T08:13:21;3.44;;;3.14;;
83119;SDS011;73001;51.784;4.660;2024-01-15T08:15:47;2.40;;;2.21;;
83119;SDS011;73001;51.784;4.660;2024-01-15T08:18:12;3.49;;;3.23;;
83119;SDS011;73001;51.784;4.660;2024-01-15T08:20:38;2.20;;;2.08;;
83119;SDS011;73001;51.784;4.660;2024-01-15T08:23:04;2.15;;;1.99;;
83119;SDS011;73001;51.784;4.660;2024-01-15T08:25:29;1.61;;;1.48;;
83119;SDS011;73001;51.784;4.660;2024-01-15T08:27:56;1.92;;;1.71;;
83119;SDS011;73001;51.784;4.660;2024-01-15T08:30:22;2.55;;;2.19;;
83119;SDS011;73001;51.784;4.660;2024-01-15T08:32:55;2.58;;;2.21;;
83119;SDS011;73001;51.784;4.660;2024-01-15T08:35:21;2.87;;;2.48;;
83119;SDS011;73001;51.784;4.660;2024-01-15T08:37:50;2.55;;;2.26;;
83119;SDS011;73001;51.784;4.660;2024-01-15T08:40:19;2.74;;;2.38;;
83119;SDS011;73001;51.784;4.660;2024-01-15T08:42:45;3.08;;;2.71;;
83119;SDS011;73001;51.784;4.660;2024-01-15T08:45:11;2.51;;;2.24;;
83119;SDS011;73001;51.784;4.660;2024-01-15T08:47:36;2.40;;;2.09;;
83119;SDS011;73001;51.784;4.660;2024-01-15T08:50:02;2.31;;;1.97;;
83119;SDS011;73001;51.784;4.660;2024-01-15T08:52:29;2.32;;;1.96;;
83119;SDS011;73001;51.784;4.660;2024-01-15T08:54:58;3.16;;;2.65;;
83119;SDS011;73001;51.784;4.660;2024-01-15T08:57:23;2.57;;;2.11;;
83119;SDS011;73001;51.784;4.660;2024-01-15T08:59:49;2.68;;;2.21;;
83119;SDS011;73001;51.784;4.660;2024-01-15T09:02:14;2.79;;;2.32;;
83119;SDS011;73001;51.784;4.660;2024-01-15T09:04:40;2.58;;;2.15;;
83119;SDS011;73001;51.784;4.660;2024-01-15T09:07:06;2.54;;;2.09;;
83119;SDS011;73001;51.784;4.660;2024-01-15T09:09:32;2.98;;;2.42;;
83119;SDS011;73001;51.784;4.660;2024-01-15T09:11:59;2.78;;;2.24;;
83119;SDS011;73001;51.784;4.660;2024-01-15T09:14:25;3.26;;;2.67;;
83119;SDS011;73001;51.784;4.660;2024-01-15T09:16:52;2.68;;;2.22;;
83119;SDS011;73001;51.784;4.660;2024-01-15T09:19:18;2.56;;;2.03;;
83119;SDS011;73001;51.784;4.660;2024-01-15T09:21:44;2.72;;;2.12;;
83119;SDS011;73001;51.784;4.660;2024-01-15T09:24:10;2.48;;;1.88;;
83119;SDS011;73001;51.784;4.660;2024-01-15T09:26:36;3.19;;;2.38;;
83119;SDS011;73001;51.784;4.660;2024-01-15T09:29:01;3.46;;;2.52;;
83119;SDS011;73001;51.784;4.660;2024-01-15T09:31:28;3.59;;;2.52;;
83119;SDS011;73001;51.784;4.660;2024-01-15T09:33:53;3.18;;;2.20;;
83119;SDS011;73001;51.784;4.660;2024-01-15T09:36:21;2.99;;;2.07;;
83119;SDS011;73001;51.784;4.660;2024-01-15T09:38:48;2.62;;;1.83;;
83119;SDS011;73001;51.784;4.660;2024-01-15T09:41:13;2.41;;;1.67;;
83119;SDS011;73001;51.784;4.660;2024-01-15T09:43:40;2.32;;;1.60;;
83119;SDS011;73001;51.784;4.660;2024-01-15T09:46:06;2.26;;;1.56;;
83119;SDS011;73001;51.784;4.660;2024-01-15T09:48:31;3.00;;;2.05;;
83119;SDS011;73001;51.784;4.660;2024-01-15T09:51:00;3.30;;;2.22;;
83119;SDS011;73001;51.784;4.660;2024-01-15T09:53:27;3.02;;;2.01;;
83119;SDS011;73001;51.784;4.660;2024-01-15T09:55:53;2.98;;;1.98;;
83119;SDS011;73001;51.784;4.660;2024-01-15T09:58:19;3.11;;;2.06;;
83119;SDS011;73001;51.784;4.660;2024-01-15T10:00:46;2.81;;;1.87;;
83119;SDS011;73001;51.784;4.660;2024-01-15T10:03:15;3.09;;;2.06;;
83119;SDS011;73001;51.784;4.660;2024-01-15T10:05:40;3.08;;;2.07;;
83119;SDS011;73001;51.784;4.660;2024-01-15T10:08:06;3.18;;;2.15;;
83119;SDS011;73001;51.784;4.660;2024-01-15T10:10:32;3.41;;;2.39;;
83119;SDS011;73001;51.784;4.660;2024-01-15T10:12:58;2.70;;;1.91;;
83119;SDS011;73001;51.784;4.660;2024-01-15T10:15:27;2.53;;;1.80;;
83119;SDS011;73001;51.784;4.660;2024-01-15T10:17:53;2.63;;;1.85;;
83119;SDS011;73001;51.784;4.660;2024-01-15T10:20:19;2.71;;;1.91;;
83119;SDS011;73001;51.784;4.660;2024-01-15T10:22:47;3.48;;;2.46;;
83119;SDS011;73001;51.784;4.660;2024-01-15T10:25:13;3.11;;;2.16;;
83119;SDS011;73001;51.784;4.660;2024-01-15T10:27:40;2.81;;;1.97;;
83119;SDS011;73001;51.784;4.660;2024-01-15T10:30:07;2.80;;;1.99;;
83119;SDS011;73001;51.784;4.660;2024-01-15T10:32:37;2.98;;;2.12;;
83119;SDS011;73001;51.784;4.660;2024-01-15T10:35:03;3.08;;;2.18;;
83119;SDS011;73001;51.784;4.660;2024-01-15T10:37:32;3.17;;;2.26;;
83119;SDS011;73001;51.784;4.660;2024-01-15T10:39:58;2.48;;;1.79;;
83119;SDS011;73001;51.784;4.660;2024-01-15T10:42:27;2.72;;;1.98;;
83119;SDS011;73001;51.784;4.660;2024-01-15T10:44:53;2.50;;;1.84;;
83119;SDS011;73001;51.784;4.660;2024-01-15T10:47:18;2.09;;;1.53;;
83119;SDS011;73001;51.784;4.660;2024-01-15T10:49:45;1.96;;;1.45;;
83119;SDS011;73001;51.784;4.660;2024-01-15T10:52:11;1.84;;;1.37;;
83119;SDS011;73001;51.784;4.660;2024-01-15T10:54:37;2.11;;;1.59;;
83119;SDS011;73001;51.784;4.660;2024-01-15T10:57:03;2.45;;;1.88;;
83119;SDS011;73001;51.784;4.660;2024-01-15T10:59:28;2.02;;;1.57;;
83119;SDS011;73001;51.784;4.660;2024-01-15T11:01:54;1.85;;;1.43;;
83119;SDS011;73001;51.784;4.660;2024-01-15T11:04:21;1.93;;;1.49;;
83119;SDS011;73001;51.784;4.660;2024-01-15T11:06:50;2.41;;;1.83;;
83119;SDS011;73001;51.784;4.660;2024-01-15T11:09:18;2.38;;;1.82;;
83119;SDS011;73001;51.784;4.660;2024-01-15T11:11:44;2.51;;;1.91;;
83119;SDS011;73001;51.784;4.660;2024-01-15T11:14:33;2.49;;;1.91;;
83119;SDS011;73001;51.784;4.660;2024-01-15T11:16:59;2.58;;;2.01;;
83119;SDS011;73001;51.784;4.660;2024-01-15T11:19:25;2.71;;;2.12;;
83119;SDS011;73001;51.784;4.660;2024-01-15T11:21:50;3.47;;;2.79;;
83119;SDS011;73001;51.784;4.660;2024-01-15T11:27:04;5.25;;;4.78;;
83119;SDS011;73001;51.784;4.660;2024-01-15T11:29:35;3.94;;;3.55;;
83119;SDS011;73001;51.784;4.660;2024-01-15T11:32:02;5.82;;;4.91;;
83119;SDS011;73001;51.784;4.660;2024-01-15T11:34:50;13.44;;;10.44;;
83119;SDS011;73001;51.784;4.660;2024-01-15T11:37:17;8.24;;;6.42;;
83119;SDS011;73001;51.784;4.660;2024-01-15T11:39:44;3.55;;;2.79;;
83119;SDS011;73001;51.784;4.660;2024-01-15T11:42:13;3.38;;;2.76;;
83119;SDS011;73001;51.784;4.660;2024-01-15T11:44:40;2.74;;;2.29;;
83119;SDS011;73001;51.784;4.660;2024-01-15T11:47:07;2.47;;;2.10;;
83119;SDS011;73001;51.784;4.660;2024-01-15T11:52:24;2.36;;;1.99;;
83119;SDS011;73001;51.784;4.660;2024-01-15T11:55:00;2.06;;;1.73;;
83119;SDS011;73001;51.784;4.660;2024-01-15T11:57:57;2.10;;;1.73;;
83119;SDS011;73001;51.784;4.660;2024-01-15T12:00:26;2.33;;;1.87;;
83119;SDS011;73001;51.784;4.660;2024-01-15T12:02:51;2.44;;;1.94;;
83119;SDS011;73001;51.784;4.660;2024-01-15T12:05:17;2.34;;;1.91;;
83119;SDS011;73001;51.784;4.660;2024-01-15T12:07:46;2.23;;;1.83;;
83119;SDS011;73001;51.784;4.660;2024-01-15T12:10:20;2.03;;;1.65;;
83119;SDS011;73001;51.784;4.660;2024-01-15T12:15:34;2.05;;;1.63;;
83119;SDS011;73001;51.784;4.660;2024-01-15T12:18:01;1.85;;;1.41;;
83119;SDS011;73001;51.784;4.660;2024-01-15T12:20:28;2.16;;;1.59;;
83119;SDS011;73001;51.784;4.660;2024-01-15T12:22:54;3.58;;;2.64;;
83119;SDS011;73001;51.784;4.660;2024-01-15T12:25:21;3.53;;;2.72;;
83119;SDS011;73001;51.784;4.660;2024-01-15T12:27:48;2.82;;;2.17;;
83119;SDS011;73001;51.784;4.660;2024-01-15T12:30:14;2.70;;;2.07;;
83119;SDS011;73001;51.784;4.660;2024-01-15T12:32:40;2.75;;;2.09;;
83119;SDS011;73001;51.784;4.660;2024-01-15T12:35:10;3.48;;;2.62;;
83119;SDS011;73001;51.784;4.660;2024-01-15T12:37:36;2.51;;;1.90;;
83119;SDS011;73001;51.784;4.660;2024-01-15T12:40:04;2.78;;;2.09;;
83119;SDS011;73001;51.784;4.660;2024-01-15T12:42:41;3.14;;;2.33;;
83119;SDS011;73001;51.784;4.660;2024-01-15T12:45:07;2.94;;;2.21;;
83119;SDS011;73001;51.784;4.660;2024-01-15T12:47:37;3.06;;;2.30;;
83119;SDS011;73001;51.784;4.660;2024-01-15T12:50:10;3.17;;;2.31;;
83119;SDS011;73001;51.784;4.660;2024-01-15T12:52:40;2.87;;;2.04;;
83119;SDS011;73001;51.784;4.660;2024-01-15T12:55:09;3.77;;;2.80;;
83119;SDS011;73001;51.784;4.660;2024-01-15T12:57:36;5.86;;;4.74;;
83119;SDS011;73001;51.784;4.660;2024-01-15T13:00:04;9.74;;;9.14;;
83119;SDS011;73001;51.784;4.660;2024-01-15T13:02:37;7.10;;;7.05;;
83119;SDS011;73001;51.784;4.660;2024-01-15T13:05:04;4.14;;;4.09;;
83119;SDS011;73001;51.784;4.660;2024-01-15T13:07:35;3.52;;;3.46;;
83119;SDS011;73001;51.784;4.660;2024-01-15T13:10:00;3.00;;;2.95;;
83119;SDS011;73001;51.784;4.660;2024-01-15T13:12:26;3.37;;;3.30;;
83119;SDS011;73001;51.784;4.660;2024-01-15T13:14:52;2.90;;;2.77;;
83119;SDS011;73001;51.784;4.660;2024-01-15T13:17:20;2.54;;;2.35;;
83119;SDS011;73001;51.784;4.660;2024-01-15T13:19:46;3.10;;;2.82;;
83119;SDS011;73001;51.784;4.660;2024-01-15T13:22:15;3.68;;;3.39;;
83119;SDS011;73001;51.784;4.660;2024-01-15T13:24:57;2.50;;;2.25;;
83119;SDS011;73001;51.784;4.660;2024-01-15T13:27:27;2.55;;;2.18;;
83119;SDS011;73001;51.784;4.660;2024-01-15T13:29:57;3.20;;;2.73;;
83119;SDS011;73001;51.784;4.660;2024-01-15T13:32:28;5.33;;;4.71;;
83119;SDS011;73001;51.784;4.660;2024-01-15T13:34:55;3.89;;;3.44;;
83119;SDS011;73001;51.784;4.660;2024-01-15T13:37:21;3.40;;;2.83;;
83119;SDS011;73001;51.784;4.660;2024-01-15T13:39:49;3.00;;;2.32;;
83119;SDS011;73001;51.784;4.660;2024-01-15T13:42:18;4.07;;;2.97;;
83119;SDS011;73001;51.784;4.660;2024-01-15T13:44:45;4.16;;;2.93;;
83119;SDS011;73001;51.784;4.660;2024-01-15T13:47:11;3.83;;;2.59;;
83119;SDS011;73001;51.784;4.660;2024-01-15T13:49:38;3.60;;;2.39;;
83119;SDS011;73001;51.784;4.660;2024-01-15T13:52:09;3.61;;;2.38;;
83119;SDS011;73001;51.784;4.660;2024-01-15T13:54:34;2.88;;;1.90;;
83119;SDS011;73001;51.784;4.660;2024-01-15T13:57:00;3.13;;;2.06;;
83119;SDS011;73001;51.784;4.660;2024-01-15T13:59:26;2.65;;;1.76;;
83119;SDS011;73001;51.784;4.660;2024-01-15T14:01:52;3.20;;;2.12;;
83119;SDS011;73001;51.784;4.660;2024-01-15T14:04:17;2.08;;;1.37;;
83119;SDS011;73001;51.784;4.660;2024-01-15T14:06:46;2.54;;;1.70;;
83119;SDS011;73001;51.784;4.660;2024-01-15T14:09:11;2.28;;;1.56;;
83119;SDS011;73001;51.784;4.660;2024-01-15T14:11:40;2.49;;;1.70;;
83119;SDS011;73001;51.784;4.660;2024-01-15T14:14:06;2.40;;;1.66;;
83119;SDS011;73001;51.784;4.660;2024-01-15T14:16:33;2.35;;;1.65;;
83119;SDS011;73001;51.784;4.660;2024-01-15T14:18:59;2.66;;;1.85;;
83119;SDS011;73001;51.784;4.660;2024-01-15T14:21:30;3.24;;;2.29;;
83119;SDS011;73001;51.784;4.660;2024-01-15T14:24:02;3.12;;;2.22;;
83119;SDS011;73001;51.784;4.660;2024-01-15T14:26:31;3.25;;;2.32;;
83119;SDS011;73001;51.784;4.660;2024-01-15T14:28:59;2.90;;;2.08;;
83119;SDS011;73001;51.784;4.660;2024-01-15T14:31:31;2.97;;;2.13;;
83119;SDS011;73001;51.784;4.660;2024-01-15T14:33:58;3.55;;;2.55;;
83119;SDS011;73001;51.784;4.660;2024-01-15T14:36:24;4.89;;;3.57;;
83119;SDS011;73001;51.784;4.660;2024-01-15T14:38:52;6.78;;;5.58;;
83119;SDS011;73001;51.784;4.660;2024-01-15T14:41:21;4.15;;;3.60;;
83119;SDS011;73001;51.784;4.660;2024-01-15T14:43:49;2.49;;;2.18;;
83119;SDS011;73001;51.784;4.660;2024-01-15T14:46:17;2.51;;;2.10;;
83119;SDS011;73001;51.784;4.660;2024-01-15T14:48:43;2.50;;;2.17;;
83119;SDS011;73001;51.784;4.660;2024-01-15T14:51:10;2.84;;;2.44;;
83119;SDS011;73001;51.784;4.660;2024-01-15T14:53:35;2.84;;;2.44;;
83119;SDS011;73001;51.784;4.660;2024-01-15T14:56:04;3.25;;;2.80;;